sensor_id;sensor_type;location;lat;lon;timestamp;P1;durP1;ratioP1;P2;durP2;ratioP2
64615;SDS011;51027;42.162;24.754;2023-12-28T00:02:03;20.77;;;8.85;;
64615;SDS011;51027;42.162;24.754;2023-12-28T00:04:28;22.83;;;9.77;;
64615;SDS011;51027;42.162;24.754;2023-12-28T00:06:54;22.05;;;9.88;;
64615;SDS011;51027;42.162;24.754;2023-12-28T00:09:20;19.45;;;8.73;;
64615;SDS011;51027;42.162;24.754;2023-12-28T00:11:45;18.98;;;8.70;;
64615;SDS011;51027;42.162;24.754;2023-12-28T00:14:11;23.67;;;9.25;;
64615;SDS011;51027;42.162;24.754;2023-12-28T00:16:36;20.20;;;8.45;;
64615;SDS011;51027;42.162;24.754;2023-12-28T00:19:03;19.85;;;8.38;;
64615;SDS011;51027;42.162;24.754;2023-12-28T00:21:29;21.92;;;8.43;;
64615;SDS011;51027;42.162;24.754;2023-12-28T00:23:57;20.33;;;8.30;;
64615;SDS011;51027;42.162;24.754;2023-12-28T00:26:25;20.55;;;10.20;;
64615;SDS011;51027;42.162;24.754;2023-12-28T00:28:50;22.70;;;10.50;;
64615;SDS011;51027;42.162;24.754;2023-12-28T00:31:16;25.73;;;11.38;;
64615;SDS011;51027;42.162;24.754;2023-12-28T00:33:44;21.30;;;8.50;;
64615;SDS011;51027;42.162;24.754;2023-12-28T00:36:09;21.80;;;8.25;;
64615;SDS011;51027;42.162;24.754;2023-12-28T00:38:34;18.08;;;7.13;;
64615;SDS011;51027;42.162;24.754;2023-12-28T00:41:00;19.83;;;8.27;;
64615;SDS011;51027;42.162;24.754;2023-12-28T00:43:25;19.60;;;7.85;;
64615;SDS011;51027;42.162;24.754;2023-12-28T00:45:51;19.98;;;7.35;;
64615;SDS011;51027;42.162;24.754;2023-12-28T00:48:16;18.55;;;6.88;;
64615;SDS011;51027;42.162;24.754;2023-12-28T00:50:41;20.25;;;7.65;;
64615;SDS011;51027;42.162;24.754;2023-12-28T00:53:07;22.17;;;7.55;;
64615;SDS011;51027;42.162;24.754;2023-12-28T00:55:32;19.25;;;7.20;;
64615;SDS011;51027;42.162;24.754;2023-12-28T00:57:58;22.13;;;8.57;;
64615;SDS011;51027;42.162;24.754;2023-12-28T01:00:23;19.52;;;8.05;;
64615;SDS011;51027;42.162;24.754;2023-12-28T01:02:48;20.35;;;8.05;;
64615;SDS011;51027;42.162;24.754;2023-12-28T01:05:14;20.70;;;7.63;;
64615;SDS011;51027;42.162;24.754;2023-12-28T01:07:40;19.23;;;8.10;;
64615;SDS011;51027;42.162;24.754;2023-12-28T01:10:05;20.90;;;7.63;;
64615;SDS011;51027;42.162;24.754;2023-12-28T01:12:31;22.75;;;7.20;;
64615;SDS011;51027;42.162;24.754;2023-12-28T01:14:57;18.25;;;7.00;;
64615;SDS011;51027;42.162;24.754;2023-12-28T01:17:23;18.95;;;6.70;;
64615;SDS011;51027;42.162;24.754;2023-12-28T01:19:48;20.35;;;7.03;;
64615;SDS011;51027;42.162;24.754;2023-12-28T01:22:14;18.90;;;6.88;;
64615;SDS011;51027;42.162;24.754;2023-12-28T01:24:39;16.50;;;6.18;;
64615;SDS011;51027;42.162;24.754;2023-12-28T01:27:04;16.92;;;6.40;;
64615;SDS011;51027;42.162;24.754;2023-12-28T01:29:30;19.08;;;6.57;;
64615;SDS011;51027;42.162;24.754;2023-12-28T01:31:55;21.23;;;7.28;;
64615;SDS011;51027;42.162;24.754;2023-12-28T01:34:21;18.38;;;6.55;;
64615;SDS011;51027;42.162;24.754;2023-12-28T01:36:46;15.55;;;5.57;;
64615;SDS011;51027;42.162;24.754;2023-12-28T01:39:12;20.20;;;7.10;;
64615;SDS011;51027;42.162;24.754;2023-12-28T01:41:37;17.98;;;7.15;;
64615;SDS011;51027;42.162;24.754;2023-12-28T01:44:03;19.48;;;6.80;;
64615;SDS011;51027;42.162;24.754;2023-12-28T01:46:28;19.38;;;7.05;;
64615;SDS011;51027;42.162;24.754;2023-12-28T01:48:54;18.77;;;6.45;;
64615;SDS011;51027;42.162;24.754;2023-12-28T01:51:21;16.90;;;6.22;;
64615;SDS011;51027;42.162;24.754;2023-12-28T01:53:48;16.83;;;6.32;;
64615;SDS011;51027;42.162;24.754;2023-12-28T01:56:16;16.27;;;6.40;;
64615;SDS011;51027;42.162;24.754;2023-12-28T01:58:43;19.20;;;7.22;;
64615;SDS011;51027;42.162;24.754;2023-12-28T02:01:10;16.58;;;5.43;;
64615;SDS011;51027;42.162;24.754;2023-12-28T02:03:36;16.67;;;6.82;;
64615;SDS011;51027;42.162;24.754;2023-12-28T02:06:01;15.88;;;5.90;;
64615;SDS011;51027;42.162;24.754;2023-12-28T02:08:28;19.13;;;6.38;;
64615;SDS011;51027;42.162;24.754;2023-12-28T02:10:54;17.33;;;6.38;;
64615;SDS011;51027;42.162;24.754;2023-12-28T02:13:20;16.98;;;6.65;;
64615;SDS011;51027;42.162;24.754;2023-12-28T02:15:46;18.90;;;6.50;;
64615;SDS011;51027;42.162;24.754;2023-12-28T02:18:19;16.98;;;6.88;;
64615;SDS011;51027;42.162;24.754;2023-12-28T02:20:48;17.50;;;5.97;;
64615;SDS011;51027;42.162;24.754;2023-12-28T02:23:15;17.50;;;6.45;;
64615;SDS011;51027;42.162;24.754;2023-12-28T02:25:41;17.58;;;6.95;;
64615;SDS011;51027;42.162;24.754;2023-12-28T02:28:06;22.08;;;7.15;;
64615;SDS011;51027;42.162;24.754;2023-12-28T02:30:32;20.88;;;7.97;;
64615;SDS011;51027;42.162;24.754;2023-12-28T02:36:28;17.50;;;6.47;;
64615;SDS011;51027;42.162;24.754;2023-12-28T02:38:53;20.67;;;6.70;;
64615;SDS011;51027;42.162;24.754;2023-12-28T02:41:23;19.95;;;6.18;;
64615;SDS011;51027;42.162;24.754;2023-12-28T02:43:50;17.60;;;6.25;;
64615;SDS011;51027;42.162;24.754;2023-12-28T02:46:16;16.60;;;6.18;;
64615;SDS011;51027;42.162;24.754;2023-12-28T02:48:41;16.98;;;6.38;;
64615;SDS011;51027;42.162;24.754;2023-12-28T02:51:07;18.55;;;6.90;;
64615;SDS011;51027;42.162;24.754;2023-12-28T02:53:32;18.50;;;6.50;;
64615;SDS011;51027;42.162;24.754;2023-12-28T02:55:58;21.85;;;7.10;;
64615;SDS011;51027;42.162;24.754;2023-12-28T02:58:23;23.08;;;7.05;;
64615;SDS011;51027;42.162;24.754;2023-12-28T03:00:49;17.85;;;7.47;;
64615;SDS011;51027;42.162;24.754;2023-12-28T03:03:14;18.10;;;6.82;;
64615;SDS011;51027;42.162;24.754;2023-12-28T03:05:40;21.58;;;6.43;;
64615;SDS011;51027;42.162;24.754;2023-12-28T03:08:06;16.80;;;6.28;;
64615;SDS011;51027;42.162;24.754;2023-12-28T03:10:32;14.48;;;6.22;;
64615;SDS011;51027;42.162;24.754;2023-12-28T03:12:57;16.45;;;5.25;;
64615;SDS011;51027;42.162;24.754;2023-12-28T03:15:23;17.73;;;4.93;;
64615;SDS011;51027;42.162;24.754;2023-12-28T03:17:48;14.32;;;5.70;;
64615;SDS011;51027;42.162;24.754;2023-12-28T03:20:14;14.13;;;5.63;;
64615;SDS011;51027;42.162;24.754;2023-12-28T03:22:40;17.50;;;6.28;;
64615;SDS011;51027;42.162;24.754;2023-12-28T03:25:05;16.85;;;6.55;;
64615;SDS011;51027;42.162;24.754;2023-12-28T03:27:31;22.85;;;7.40;;
64615;SDS011;51027;42.162;24.754;2023-12-28T03:29:56;19.05;;;6.55;;
64615;SDS011;51027;42.162;24.754;2023-12-28T03:32:22;17.35;;;6.50;;
64615;SDS011;51027;42.162;24.754;2023-12-28T03:34:47;17.77;;;6.15;;
64615;SDS011;51027;42.162;24.754;2023-12-28T03:37:13;16.48;;;6.07;;
64615;SDS011;51027;42.162;24.754;2023-12-28T03:39:38;19.88;;;7.55;;
64615;SDS011;51027;42.162;24.754;2023-12-28T03:42:04;19.00;;;6.75;;
64615;SDS011;51027;42.162;24.754;2023-12-28T03:44:29;18.60;;;7.40;;
64615;SDS011;51027;42.162;24.754;2023-12-28T03:46:54;17.98;;;7.15;;
64615;SDS011;51027;42.162;24.754;2023-12-28T03:49:21;18.73;;;7.93;;
64615;SDS011;51027;42.162;24.754;2023-12-28T03:51:47;27.17;;;11.77;;
64615;SDS011;51027;42.162;24.754;2023-12-28T03:54:17;27.73;;;12.98;;
64615;SDS011;51027;42.162;24.754;2023-12-28T03:56:43;28.27;;;13.53;;
64615;SDS011;51027;42.162;24.754;2023-12-28T03:59:10;27.00;;;12.45;;
64615;SDS011;51027;42.162;24.754;2023-12-28T04:01:36;25.23;;;11.60;;
64615;SDS011;51027;42.162;24.754;2023-12-28T04:04:02;24.70;;;10.57;;
64615;SDS011;51027;42.162;24.754;2023-12-28T04:06:27;35.60;;;15.82;;
64615;SDS011;51027;42.162;24.754;2023-12-28T04:08:53;27.17;;;13.20;;
64615;SDS011;51027;42.162;24.754;2023-12-28T04:11:18;27.67;;;12.85;;
64615;SDS011;51027;42.162;24.754;2023-12-28T04:13:44;24.85;;;10.98;;
64615;SDS011;51027;42.162;24.754;2023-12-28T04:16:14;23.70;;;11.15;;
64615;SDS011;51027;42.162;24.754;2023-12-28T04:18:43;23.48;;;10.13;;
64615;SDS011;51027;42.162;24.754;2023-12-28T04:21:09;27.00;;;11.03;;
64615;SDS011;51027;42.162;24.754;2023-12-28T04:23:36;27.55;;;12.73;;
64615;SDS011;51027;42.162;24.754;2023-12-28T04:26:02;25.95;;;12.70;;
64615;SDS011;51027;42.162;24.754;2023-12-28T04:28:28;26.10;;;12.65;;
64615;SDS011;51027;42.162;24.754;2023-12-28T04:30:53;27.30;;;12.68;;
64615;SDS011;51027;42.162;24.754;2023-12-28T04:33:18;29.13;;;14.20;;
64615;SDS011;51027;42.162;24.754;2023-12-28T04:35:44;33.58;;;16.25;;
64615;SDS011;51027;42.162;24.754;2023-12-28T04:38:10;31.48;;;14.80;;
64615;SDS011;51027;42.162;24.754;2023-12-28T04:40:36;25.55;;;10.65;;
64615;SDS011;51027;42.162;24.754;2023-12-28T04:43:01;21.17;;;9.05;;
64615;SDS011;51027;42.162;24.754;2023-12-28T04:45:27;21.38;;;8.15;;
64615;SDS011;51027;42.162;24.754;2023-12-28T04:47:53;20.02;;;6.88;;
64615;SDS011;51027;42.162;24.754;2023-12-28T04:50:19;16.40;;;6.25;;
64615;SDS011;51027;42.162;24.754;2023-12-28T04:52:45;19.02;;;6.40;;
64615;SDS011;51027;42.162;24.754;2023-12-28T04:55:10;17.42;;;6.00;;
64615;SDS011;51027;42.162;24.754;2023-12-28T04:57:36;18.75;;;6.63;;
64615;SDS011;51027;42.162;24.754;2023-12-28T05:00:01;16.17;;;6.43;;
64615;SDS011;51027;42.162;24.754;2023-12-28T05:02:28;17.55;;;6.85;;
64615;SDS011;51027;42.162;24.754;2023-12-28T05:04:53;17.60;;;6.93;;
64615;SDS011;51027;42.162;24.754;2023-12-28T05:07:19;19.95;;;7.50;;
64615;SDS011;51027;42.162;24.754;2023-12-28T05:09:44;18.40;;;7.13;;
64615;SDS011;51027;42.162;24.754;2023-12-28T05:12:09;17.83;;;7.93;;
64615;SDS011;51027;42.162;24.754;2023-12-28T05:14:35;18.88;;;7.43;;
64615;SDS011;51027;42.162;24.754;2023-12-28T05:17:00;23.05;;;8.75;;
64615;SDS011;51027;42.162;24.754;2023-12-28T05:19:26;22.23;;;7.95;;
64615;SDS011;51027;42.162;24.754;2023-12-28T05:21:51;20.08;;;7.70;;
64615;SDS011;51027;42.162;24.754;2023-12-28T05:24:16;18.38;;;7.50;;
64615;SDS011;51027;42.162;24.754;2023-12-28T05:26:42;21.77;;;7.38;;
64615;SDS011;51027;42.162;24.754;2023-12-28T05:29:07;20.17;;;7.30;;
64615;SDS011;51027;42.162;24.754;2023-12-28T05:31:33;17.73;;;6.78;;
64615;SDS011;51027;42.162;24.754;2023-12-28T05:33:58;17.05;;;7.05;;
64615;SDS011;51027;42.162;24.754;2023-12-28T05:36:24;17.65;;;6.57;;
64615;SDS011;51027;42.162;24.754;2023-12-28T05:38:50;22.00;;;7.00;;
64615;SDS011;51027;42.162;24.754;2023-12-28T05:41:15;20.15;;;7.18;;
64615;SDS011;51027;42.162;24.754;2023-12-28T05:43:41;20.83;;;8.80;;
64615;SDS011;51027;42.162;24.754;2023-12-28T05:46:06;24.30;;;10.70;;
64615;SDS011;51027;42.162;24.754;2023-12-28T05:48:32;23.02;;;9.60;;
64615;SDS011;51027;42.162;24.754;2023-12-28T05:50:57;22.50;;;10.55;;
64615;SDS011;51027;42.162;24.754;2023-12-28T05:53:26;21.70;;;9.45;;
64615;SDS011;51027;42.162;24.754;2023-12-28T05:55:52;23.60;;;9.93;;
64615;SDS011;51027;42.162;24.754;2023-12-28T05:58:18;21.52;;;9.13;;
64615;SDS011;51027;42.162;24.754;2023-12-28T06:00:44;21.17;;;7.78;;
64615;SDS011;51027;42.162;24.754;2023-12-28T06:03:11;20.10;;;8.40;;
64615;SDS011;51027;42.162;24.754;2023-12-28T06:05:36;18.58;;;6.93;;
64615;SDS011;51027;42.162;24.754;2023-12-28T06:08:02;19.80;;;7.00;;
64615;SDS011;51027;42.162;24.754;2023-12-28T06:10:27;20.30;;;7.80;;
64615;SDS011;51027;42.162;24.754;2023-12-28T06:12:53;19.65;;;7.18;;
64615;SDS011;51027;42.162;24.754;2023-12-28T06:15:18;20.05;;;7.90;;
64615;SDS011;51027;42.162;24.754;2023-12-28T06:17:44;22.33;;;8.55;;
64615;SDS011;51027;42.162;24.754;2023-12-28T06:20:09;21.50;;;7.82;;
64615;SDS011;51027;42.162;24.754;2023-12-28T06:22:38;21.65;;;8.52;;
64615;SDS011;51027;42.162;24.754;2023-12-28T06:25:04;18.10;;;7.10;;
64615;SDS011;51027;42.162;24.754;2023-12-28T06:27:30;18.65;;;7.20;;
64615;SDS011;51027;42.162;24.754;2023-12-28T06:29:56;18.92;;;8.30;;
64615;SDS011;51027;42.162;24.754;2023-12-28T06:32:21;18.98;;;7.97;;
64615;SDS011;51027;42.162;24.754;2023-12-28T06:34:47;19.05;;;7.68;;
64615;SDS011;51027;42.162;24.754;2023-12-28T06:37:13;20.13;;;7.75;;
64615;SDS011;51027;42.162;24.754;2023-12-28T06:39:39;20.40;;;7.70;;
64615;SDS011;51027;42.162;24.754;2023-12-28T06:42:04;18.33;;;7.80;;
64615;SDS011;51027;42.162;24.754;2023-12-28T06:44:30;22.13;;;7.70;;
64615;SDS011;51027;42.162;24.754;2023-12-28T06:46:55;16.98;;;7.82;;
64615;SDS011;51027;42.162;24.754;2023-12-28T06:49:21;24.83;;;10.82;;
64615;SDS011;51027;42.162;24.754;2023-12-28T06:51:46;32.35;;;13.00;;
64615;SDS011;51027;42.162;24.754;2023-12-28T06:54:12;27.55;;;12.25;;
64615;SDS011;51027;42.162;24.754;2023-12-28T06:56:38;27.50;;;10.75;;
64615;SDS011;51027;42.162;24.754;2023-12-28T06:59:04;22.30;;;10.20;;
64615;SDS011;51027;42.162;24.754;2023-12-28T07:01:29;24.63;;;9.75;;
64615;SDS011;51027;42.162;24.754;2023-12-28T07:03:55;22.65;;;8.60;;
64615;SDS011;51027;42.162;24.754;2023-12-28T07:06:20;20.15;;;8.93;;
64615;SDS011;51027;42.162;24.754;2023-12-28T07:08:46;19.73;;;8.23;;
64615;SDS011;51027;42.162;24.754;2023-12-28T07:11:11;20.42;;;8.85;;
64615;SDS011;51027;42.162;24.754;2023-12-28T07:13:36;19.55;;;8.32;;
64615;SDS011;51027;42.162;24.754;2023-12-28T07:16:02;18.60;;;8.23;;
64615;SDS011;51027;42.162;24.754;2023-12-28T07:18:28;19.05;;;8.18;;
64615;SDS011;51027;42.162;24.754;2023-12-28T07:20:53;20.67;;;7.82;;
64615;SDS011;51027;42.162;24.754;2023-12-28T07:23:19;18.42;;;7.45;;
64615;SDS011;51027;42.162;24.754;2023-12-28T07:25:44;19.15;;;8.15;;
64615;SDS011;51027;42.162;24.754;2023-12-28T07:28:10;23.80;;;8.60;;
64615;SDS011;51027;42.162;24.754;2023-12-28T07:30:36;24.70;;;8.63;;
64615;SDS011;51027;42.162;24.754;2023-12-28T07:33:02;19.60;;;9.10;;
64615;SDS011;51027;42.162;24.754;2023-12-28T07:35:27;22.70;;;9.65;;
64615;SDS011;51027;42.162;24.754;2023-12-28T07:37:53;22.92;;;10.23;;
64615;SDS011;51027;42.162;24.754;2023-12-28T07:40:19;24.88;;;10.63;;
64615;SDS011;51027;42.162;24.754;2023-12-28T07:42:45;27.90;;;11.05;;
64615;SDS011;51027;42.162;24.754;2023-12-28T07:45:10;22.23;;;8.82;;
64615;SDS011;51027;42.162;24.754;2023-12-28T07:47:36;22.15;;;10.02;;
64615;SDS011;51027;42.162;24.754;2023-12-28T07:50:01;21.30;;;8.88;;
64615;SDS011;51027;42.162;24.754;2023-12-28T07:52:27;23.13;;;8.60;;
64615;SDS011;51027;42.162;24.754;2023-12-28T07:54:53;23.10;;;9.50;;
64615;SDS011;51027;42.162;24.754;2023-12-28T07:57:18;21.02;;;9.15;;
64615;SDS011;51027;42.162;24.754;2023-12-28T07:59:44;19.55;;;9.00;;
64615;SDS011;51027;42.162;24.754;2023-12-28T08:02:09;20.95;;;9.15;;
64615;SDS011;51027;42.162;24.754;2023-12-28T08:04:34;20.25;;;9.20;;
64615;SDS011;51027;42.162;24.754;2023-12-28T08:07:00;21.00;;;9.18;;
64615;SDS011;51027;42.162;24.754;2023-12-28T08:09:25;20.08;;;8.60;;
64615;SDS011;51027;42.162;24.754;2023-12-28T08:11:51;22.58;;;9.80;;
64615;SDS011;51027;42.162;24.754;2023-12-28T08:14:17;20.35;;;9.70;;
64615;SDS011;51027;42.162;24.754;2023-12-28T08:16:42;20.58;;;9.55;;
64615;SDS011;51027;42.162;24.754;2023-12-28T08:19:07;22.42;;;10.57;;
64615;SDS011;51027;42.162;24.754;2023-12-28T08:21:33;23.15;;;10.07;;
64615;SDS011;51027;42.162;24.754;2023-12-28T08:23:58;23.48;;;10.98;;
64615;SDS011;51027;42.162;24.754;2023-12-28T08:26:24;23.83;;;11.52;;
64615;SDS011;51027;42.162;24.754;2023-12-28T08:28:49;28.02;;;12.60;;
64615;SDS011;51027;42.162;24.754;2023-12-28T08:31:14;23.70;;;11.15;;
64615;SDS011;51027;42.162;24.754;2023-12-28T08:33:40;22.95;;;11.27;;
64615;SDS011;51027;42.162;24.754;2023-12-28T08:36:08;26.58;;;11.90;;
64615;SDS011;51027;42.162;24.754;2023-12-28T08:38:34;23.37;;;11.63;;
64615;SDS011;51027;42.162;24.754;2023-12-28T08:41:00;20.17;;;8.70;;
64615;SDS011;51027;42.162;24.754;2023-12-28T08:43:26;20.98;;;9.68;;
64615;SDS011;51027;42.162;24.754;2023-12-28T08:45:53;22.27;;;10.73;;
64615;SDS011;51027;42.162;24.754;2023-12-28T08:48:19;25.35;;;10.13;;
64615;SDS011;51027;42.162;24.754;2023-12-28T08:50:44;20.95;;;9.55;;
64615;SDS011;51027;42.162;24.754;2023-12-28T08:53:10;21.48;;;10.18;;
64615;SDS011;51027;42.162;24.754;2023-12-28T08:55:36;22.48;;;10.43;;
64615;SDS011;51027;42.162;24.754;2023-12-28T08:58:01;24.95;;;9.95;;
64615;SDS011;51027;42.162;24.754;2023-12-28T09:00:27;23.02;;;10.50;;
64615;SDS011;51027;42.162;24.754;2023-12-28T09:02:53;22.10;;;10.48;;
64615;SDS011;51027;42.162;24.754;2023-12-28T09:05:18;25.95;;;11.68;;
64615;SDS011;51027;42.162;24.754;2023-12-28T09:07:44;24.33;;;10.95;;
64615;SDS011;51027;42.162;24.754;2023-12-28T09:10:10;21.05;;;9.55;;
64615;SDS011;51027;42.162;24.754;2023-12-28T09:12:36;22.95;;;9.95;;
64615;SDS011;51027;42.162;24.754;2023-12-28T09:15:02;20.67;;;11.02;;
64615;SDS011;51027;42.162;24.754;2023-12-28T09:17:29;23.85;;;9.95;;
64615;SDS011;51027;42.162;24.754;2023-12-28T09:19:54;21.80;;;10.82;;
64615;SDS011;51027;42.162;24.754;2023-12-28T09:22:20;22.90;;;10.35;;
64615;SDS011;51027;42.162;24.754;2023-12-28T09:24:45;25.65;;;10.88;;
64615;SDS011;51027;42.162;24.754;2023-12-28T09:27:11;21.30;;;10.50;;
64615;SDS011;51027;42.162;24.754;2023-12-28T09:29:36;23.65;;;10.57;;
64615;SDS011;51027;42.162;24.754;2023-12-28T09:32:02;22.20;;;10.18;;
64615;SDS011;51027;42.162;24.754;2023-12-28T09:34:27;22.35;;;9.65;;
64615;SDS011;51027;42.162;24.754;2023-12-28T09:36:52;25.75;;;9.55;;
64615;SDS011;51027;42.162;24.754;2023-12-28T09:39:18;24.48;;;10.60;;
64615;SDS011;51027;42.162;24.754;2023-12-28T09:41:45;23.98;;;11.05;;
64615;SDS011;51027;42.162;24.754;2023-12-28T09:44:20;24.77;;;10.90;;
64615;SDS011;51027;42.162;24.754;2023-12-28T09:46:46;23.20;;;11.30;;
64615;SDS011;51027;42.162;24.754;2023-12-28T09:49:12;20.00;;;10.20;;
64615;SDS011;51027;42.162;24.754;2023-12-28T09:51:38;24.70;;;11.07;;
64615;SDS011;51027;42.162;24.754;2023-12-28T09:54:03;22.65;;;9.90;;
64615;SDS011;51027;42.162;24.754;2023-12-28T09:56:30;21.80;;;9.60;;
64615;SDS011;51027;42.162;24.754;2023-12-28T09:58:57;20.48;;;9.57;;
64615;SDS011;51027;42.162;24.754;2023-12-28T10:01:22;21.67;;;9.68;;
64615;SDS011;51027;42.162;24.754;2023-12-28T10:03:48;20.73;;;10.02;;
64615;SDS011;51027;42.162;24.754;2023-12-28T10:06:13;20.77;;;9.40;;
64615;SDS011;51027;42.162;24.754;2023-12-28T10:08:47;22.42;;;9.85;;
64615;SDS011;51027;42.162;24.754;2023-12-28T10:11:14;24.48;;;9.65;;
64615;SDS011;51027;42.162;24.754;2023-12-28T10:13:41;19.90;;;9.40;;
64615;SDS011;51027;42.162;24.754;2023-12-28T10:16:08;23.67;;;9.68;;
64615;SDS011;51027;42.162;24.754;2023-12-28T10:18:34;23.67;;;10.70;;
64615;SDS011;51027;42.162;24.754;2023-12-28T10:21:00;21.63;;;9.63;;
64615;SDS011;51027;42.162;24.754;2023-12-28T10:23:25;21.15;;;9.93;;
64615;SDS011;51027;42.162;24.754;2023-12-28T10:25:51;21.50;;;9.85;;
64615;SDS011;51027;42.162;24.754;2023-12-28T10:28:18;22.67;;;10.13;;
64615;SDS011;51027;42.162;24.754;2023-12-28T10:30:45;20.00;;;9.38;;
64615;SDS011;51027;42.162;24.754;2023-12-28T10:33:10;20.13;;;8.88;;
64615;SDS011;51027;42.162;24.754;2023-12-28T10:35:36;20.25;;;8.63;;
64615;SDS011;51027;42.162;24.754;2023-12-28T10:38:01;21.40;;;9.45;;
64615;SDS011;51027;42.162;24.754;2023-12-28T10:40:28;20.05;;;8.45;;
64615;SDS011;51027;42.162;24.754;2023-12-28T10:42:58;20.35;;;8.73;;
64615;SDS011;51027;42.162;24.754;2023-12-28T10:45:28;19.65;;;8.63;;
64615;SDS011;51027;42.162;24.754;2023-12-28T10:50:48;22.95;;;9.90;;
64615;SDS011;51027;42.162;24.754;2023-12-28T11:01:31;23.23;;;9.38;;
64615;SDS011;51027;42.162;24.754;2023-12-28T11:04:02;19.70;;;8.52;;
64615;SDS011;51027;42.162;24.754;2023-12-28T11:06:31;19.33;;;8.57;;
64615;SDS011;51027;42.162;24.754;2023-12-28T11:08:58;21.15;;;8.50;;
64615;SDS011;51027;42.162;24.754;2023-12-28T11:11:25;21.60;;;8.60;;
64615;SDS011;51027;42.162;24.754;2023-12-28T11:13:52;19.23;;;8.90;;
64615;SDS011;51027;42.162;24.754;2023-12-28T11:16:21;20.77;;;9.20;;
64615;SDS011;51027;42.162;24.754;2023-12-28T11:18:47;20.48;;;9.38;;
64615;SDS011;51027;42.162;24.754;2023-12-28T11:21:13;19.98;;;9.13;;
64615;SDS011;51027;42.162;24.754;2023-12-28T11:23:41;23.65;;;8.77;;
64615;SDS011;51027;42.162;24.754;2023-12-28T11:26:17;19.42;;;7.93;;
64615;SDS011;51027;42.162;24.754;2023-12-28T11:28:44;20.13;;;8.75;;
64615;SDS011;51027;42.162;24.754;2023-12-28T11:31:16;19.73;;;9.13;;
64615;SDS011;51027;42.162;24.754;2023-12-28T11:33:46;21.77;;;9.93;;
64615;SDS011;51027;42.162;24.754;2023-12-28T11:36:17;26.02;;;9.00;;
64615;SDS011;51027;42.162;24.754;2023-12-28T11:38:47;24.23;;;9.32;;
64615;SDS011;51027;42.162;24.754;2023-12-28T11:41:19;20.65;;;8.60;;
64615;SDS011;51027;42.162;24.754;2023-12-28T11:43:51;22.13;;;9.45;;
64615;SDS011;51027;42.162;24.754;2023-12-28T11:46:18;23.92;;;9.88;;
64615;SDS011;51027;42.162;24.754;2023-12-28T11:48:44;24.05;;;11.45;;
64615;SDS011;51027;42.162;24.754;2023-12-28T11:51:10;20.95;;;9.57;;
64615;SDS011;51027;42.162;24.754;2023-12-28T11:53:36;22.00;;;8.98;;
64615;SDS011;51027;42.162;24.754;2023-12-28T11:56:01;23.70;;;11.27;;
64615;SDS011;51027;42.162;24.754;2023-12-28T11:58:28;20.00;;;8.35;;
64615;SDS011;51027;42.162;24.754;2023-12-28T12:00:53;21.77;;;9.48;;
64615;SDS011;51027;42.162;24.754;2023-12-28T12:03:19;21.35;;;9.55;;
64615;SDS011;51027;42.162;24.754;2023-12-28T12:05:45;19.08;;;8.85;;
64615;SDS011;51027;42.162;24.754;2023-12-28T12:08:13;20.60;;;8.23;;
64615;SDS011;51027;42.162;24.754;2023-12-28T12:10:40;19.13;;;8.52;;
64615;SDS011;51027;42.162;24.754;2023-12-28T12:13:06;21.13;;;9.13;;
64615;SDS011;51027;42.162;24.754;2023-12-28T12:15:33;19.65;;;9.68;;
64615;SDS011;51027;42.162;24.754;2023-12-28T12:18:00;20.58;;;9.30;;
64615;SDS011;51027;42.162;24.754;2023-12-28T12:20:26;20.65;;;9.25;;
64615;SDS011;51027;42.162;24.754;2023-12-28T12:22:56;22.33;;;9.50;;
64615;SDS011;51027;42.162;24.754;2023-12-28T12:25:22;19.65;;;9.02;;
64615;SDS011;51027;42.162;24.754;2023-12-28T12:27:48;20.80;;;9.48;;
64615;SDS011;51027;42.162;24.754;2023-12-28T12:30:13;20.95;;;9.18;;
64615;SDS011;51027;42.162;24.754;2023-12-28T12:32:39;21.40;;;9.55;;
64615;SDS011;51027;42.162;24.754;2023-12-28T12:35:08;23.00;;;9.80;;
64615;SDS011;51027;42.162;24.754;2023-12-28T12:37:35;20.88;;;10.18;;
64615;SDS011;51027;42.162;24.754;2023-12-28T12:40:02;23.00;;;9.85;;
64615;SDS011;51027;42.162;24.754;2023-12-28T12:42:28;19.52;;;9.50;;
64615;SDS011;51027;42.162;24.754;2023-12-28T12:44:54;22.23;;;9.30;;
64615;SDS011;51027;42.162;24.754;2023-12-28T12:47:20;19.95;;;8.98;;
64615;SDS011;51027;42.162;24.754;2023-12-28T12:49:51;20.85;;;8.88;;
64615;SDS011;51027;42.162;24.754;2023-12-28T12:52:17;20.40;;;9.10;;
64615;SDS011;51027;42.162;24.754;2023-12-28T12:54:52;24.70;;;10.25;;
64615;SDS011;51027;42.162;24.754;2023-12-28T12:57:18;21.67;;;9.05;;
64615;SDS011;51027;42.162;24.754;2023-12-28T12:59:50;20.75;;;9.13;;
64615;SDS011;51027;42.162;24.754;2023-12-28T13:02:16;22.52;;;9.20;;
64615;SDS011;51027;42.162;24.754;2023-12-28T13:04:41;20.17;;;9.25;;
64615;SDS011;51027;42.162;24.754;2023-12-28T13:07:07;24.40;;;10.30;;
64615;SDS011;51027;42.162;24.754;2023-12-28T13:09:34;23.83;;;9.40;;
64615;SDS011;51027;42.162;24.754;2023-12-28T13:12:00;20.75;;;9.38;;
64615;SDS011;51027;42.162;24.754;2023-12-28T13:14:25;23.15;;;9.73;;
64615;SDS011;51027;42.162;24.754;2023-12-28T13:16:52;23.02;;;8.45;;
64615;SDS011;51027;42.162;24.754;2023-12-28T13:19:19;21.45;;;8.95;;
64615;SDS011;51027;42.162;24.754;2023-12-28T13:21:45;18.85;;;8.35;;
64615;SDS011;51027;42.162;24.754;2023-12-28T13:24:10;21.10;;;9.05;;
64615;SDS011;51027;42.162;24.754;2023-12-28T13:26:36;24.77;;;9.73;;
64615;SDS011;51027;42.162;24.754;2023-12-28T13:29:01;22.88;;;9.70;;
64615;SDS011;51027;42.162;24.754;2023-12-28T13:31:27;20.95;;;9.30;;
64615;SDS011;51027;42.162;24.754;2023-12-28T13:33:52;24.23;;;11.02;;
64615;SDS011;51027;42.162;24.754;2023-12-28T13:36:17;24.17;;;11.27;;
64615;SDS011;51027;42.162;24.754;2023-12-28T13:38:43;22.50;;;10.23;;
64615;SDS011;51027;42.162;24.754;2023-12-28T13:41:09;27.92;;;11.38;;
64615;SDS011;51027;42.162;24.754;2023-12-28T13:43:34;23.13;;;10.90;;
64615;SDS011;51027;42.162;24.754;2023-12-28T13:46:01;22.45;;;10.95;;
64615;SDS011;51027;42.162;24.754;2023-12-28T13:48:29;25.00;;;11.68;;
64615;SDS011;51027;42.162;24.754;2023-12-28T13:50:57;23.60;;;11.43;;
64615;SDS011;51027;42.162;24.754;2023-12-28T13:53:22;23.90;;;10.95;;
64615;SDS011;51027;42.162;24.754;2023-12-28T13:55:48;24.70;;;12.38;;
64615;SDS011;51027;42.162;24.754;2023-12-28T13:58:13;25.17;;;10.38;;
64615;SDS011;51027;42.162;24.754;2023-12-28T14:00:39;23.63;;;8.18;;
64615;SDS011;51027;42.162;24.754;2023-12-28T14:03:05;16.98;;;7.65;;
64615;SDS011;51027;42.162;24.754;2023-12-28T14:05:31;17.73;;;6.70;;
64615;SDS011;51027;42.162;24.754;2023-12-28T14:07:56;16.73;;;6.65;;
64615;SDS011;51027;42.162;24.754;2023-12-28T14:10:22;22.08;;;7.20;;
64615;SDS011;51027;42.162;24.754;2023-12-28T14:12:47;16.88;;;6.68;;
64615;SDS011;51027;42.162;24.754;2023-12-28T14:15:13;16.50;;;6.47;;
64615;SDS011;51027;42.162;24.754;2023-12-28T14:17:41;17.45;;;7.28;;
64615;SDS011;51027;42.162;24.754;2023-12-28T14:20:07;16.80;;;5.80;;
64615;SDS011;51027;42.162;24.754;2023-12-28T14:22:36;15.73;;;6.10;;
64615;SDS011;51027;42.162;24.754;2023-12-28T14:25:02;16.48;;;5.95;;
64615;SDS011;51027;42.162;24.754;2023-12-28T14:27:29;18.08;;;6.68;;